createdAt,value
2023-04-16T00:00:49.734Z,1015.31
2023-04-16T00:01:49.775Z,1015.32
2023-04-16T00:02:50.809Z,1015.31
2023-04-16T00:03:50.852Z,1015.32
2023-04-16T00:04:50.401Z,1015.35
2023-04-16T00:05:50.371Z,1015.33
2023-04-16T00:06:50.326Z,1015.32
2023-04-16T00:07:50.606Z,1015.38
2023-04-16T00:08:49.629Z,1015.36
2023-04-16T00:09:49.652Z,1015.36
2023-04-16T00:10:49.647Z,1015.37
2023-04-16T00:11:49.638Z,1015.35
2023-04-16T00:12:50.284Z,1015.32
2023-04-16T00:13:50.280Z,1015.37
2023-04-16T00:14:50.268Z,1015.35
2023-04-16T00:15:50.523Z,1015.38
2023-04-16T00:16:50.396Z,1015.34
2023-04-16T00:17:50.254Z,1015.36
2023-04-16T00:18:50.219Z,1015.35
2023-04-16T00:19:50.215Z,1015.39
2023-04-16T00:20:49.531Z,1015.40
2023-04-16T00:21:50.189Z,1015.44
2023-04-16T00:22:50.182Z,1015.41
2023-04-16T00:23:49.485Z,1015.43
2023-04-16T00:24:50.154Z,1015.46
2023-04-16T00:25:50.148Z,1015.42
2023-04-16T00:26:50.135Z,1015.44
2023-04-16T00:27:49.462Z,1015.43
2023-04-16T00:28:49.441Z,1015.46
2023-04-16T00:29:49.432Z,1015.44
2023-04-16T00:30:50.144Z,1015.43
2023-04-16T00:31:50.080Z,1015.41
2023-04-16T00:32:50.116Z,1015.41
2023-04-16T00:33:50.058Z,1015.45
2023-04-16T00:34:50.060Z,1015.41
2023-04-16T00:35:49.376Z,1015.39
2023-04-16T00:36:50.035Z,1015.38
2023-04-16T00:37:50.009Z,1015.44
2023-04-16T00:38:50.012Z,1015.43
2023-04-16T00:39:49.322Z,1015.42
2023-04-16T00:40:49.309Z,1015.42
2023-04-16T00:41:49.295Z,1015.42
2023-04-16T00:42:49.944Z,1015.42
2023-04-16T00:43:49.958Z,1015.41
2023-04-16T00:44:49.943Z,1015.39
2023-04-16T00:45:49.938Z,1015.42
2023-04-16T00:46:49.925Z,1015.44
2023-04-16T00:47:49.258Z,1015.50
2023-04-16T00:48:49.908Z,1015.51
2023-04-16T00:49:49.201Z,1015.55
2023-04-16T00:50:49.879Z,1015.52
2023-04-16T00:51:49.180Z,1015.55
2023-04-16T00:52:49.846Z,1015.54
2023-04-16T00:53:49.857Z,1015.57
2023-04-16T00:54:49.856Z,1015.54
2023-04-16T00:55:49.825Z,1015.57
2023-04-16T00:56:49.820Z,1015.56
2023-04-16T00:57:49.139Z,1015.57
2023-04-16T00:58:49.105Z,1015.59
2023-04-16T00:59:49.787Z,1015.58
2023-04-16T01:00:49.773Z,1015.64
2023-04-16T01:01:49.834Z,1015.61
2023-04-16T01:02:49.222Z,1015.60
2023-04-16T01:03:50.043Z,1015.64
2023-04-16T01:04:49.041Z,1015.64
2023-04-16T01:05:49.726Z,1015.62
2023-04-16T01:06:49.696Z,1015.67
2023-04-16T01:07:49.698Z,1015.66
2023-04-16T01:08:49.692Z,1015.62
2023-04-16T01:09:49.680Z,1015.62
2023-04-16T01:10:48.991Z,1015.65
2023-04-16T01:11:49.000Z,1015.64
2023-04-16T01:12:49.643Z,1015.61
2023-04-16T01:13:49.633Z,1015.67
2023-04-16T01:14:49.631Z,1015.69
2023-04-16T01:15:49.064Z,1015.70
2023-04-16T01:16:49.591Z,1015.71
2023-04-16T01:17:50.866Z,1015.68
2023-04-16T01:18:49.586Z,1015.74
2023-04-16T01:19:49.583Z,1015.70
2023-04-16T01:20:48.885Z,1015.73
2023-04-16T01:21:49.535Z,1015.74
2023-04-16T01:22:49.541Z,1015.75
2023-04-16T01:23:48.854Z,1015.73
2023-04-16T01:24:49.533Z,1015.72
2023-04-16T01:25:48.831Z,1015.71
2023-04-16T01:26:48.863Z,1015.72
2023-04-16T01:27:49.486Z,1015.78
2023-04-16T01:28:49.496Z,1015.71
2023-04-16T01:29:48.787Z,1015.66
2023-04-16T01:30:49.473Z,1015.74
2023-04-16T01:31:49.544Z,1015.75
2023-04-16T01:32:49.449Z,1015.71
2023-04-16T01:33:49.425Z,1015.72
2023-04-16T01:34:48.739Z,1015.74
2023-04-16T01:35:49.411Z,1015.76
2023-04-16T01:36:49.384Z,1015.74
2023-04-16T01:37:49.387Z,1015.75
2023-04-16T01:38:48.683Z,1015.74
2023-04-16T01:39:48.676Z,1015.75
2023-04-16T01:40:48.664Z,1015.76
2023-04-16T01:41:48.715Z,1015.76
2023-04-16T01:42:49.336Z,1015.77
2023-04-16T01:43:49.325Z,1015.77
2023-04-16T01:44:49.310Z,1015.78
2023-04-16T01:45:48.643Z,1015.77
2023-04-16T01:46:48.703Z,1015.81
2023-04-16T01:47:49.318Z,1015.79
2023-04-16T01:48:48.594Z,1015.82
2023-04-16T01:49:49.276Z,1015.82
2023-04-16T01:50:49.255Z,1015.86
2023-04-16T01:51:48.561Z,1015.88
2023-04-16T01:52:48.543Z,1015.83
2023-04-16T01:53:49.214Z,1015.86
2023-04-16T01:54:49.222Z,1015.87
2023-04-16T01:55:49.193Z,1015.86
2023-04-16T01:56:48.510Z,1015.77
2023-04-16T01:57:48.509Z,1015.81
2023-04-16T01:58:49.186Z,1015.81
2023-04-16T01:59:49.164Z,1015.83
2023-04-16T02:00:48.473Z,1015.78
2023-04-16T02:01:49.168Z,1015.83
2023-04-16T02:02:48.541Z,1015.79
2023-04-16T02:03:49.362Z,1015.84
2023-04-16T02:04:48.437Z,1015.86
2023-04-16T02:05:48.421Z,1015.84
2023-04-16T02:06:49.067Z,1015.82
2023-04-16T02:07:49.078Z,1015.82
2023-04-16T02:08:49.826Z,1015.81
2023-04-16T02:09:49.062Z,1015.79
2023-04-16T02:10:48.354Z,1015.78
2023-04-16T02:11:48.366Z,1015.84
2023-04-16T02:12:48.331Z,1015.76
2023-04-16T02:13:49.005Z,1015.76
2023-04-16T02:14:49.036Z,1015.78
2023-04-16T02:15:49.011Z,1015.78
2023-04-16T02:16:49.102Z,1015.79
2023-04-16T02:17:48.998Z,1015.76
2023-04-16T02:18:48.947Z,1015.79
2023-04-16T02:19:48.246Z,1015.80
2023-04-16T02:20:48.243Z,1015.81
2023-04-16T02:21:48.241Z,1015.76
2023-04-16T02:22:48.230Z,1015.78
2023-04-16T02:23:48.889Z,1015.78
2023-04-16T02:24:48.891Z,1015.79
2023-04-16T02:25:48.908Z,1015.77
2023-04-16T02:26:48.845Z,1015.78
2023-04-16T02:27:48.871Z,1015.78
2023-04-16T02:28:48.869Z,1015.78
2023-04-16T02:29:48.829Z,1015.81
2023-04-16T02:30:48.140Z,1015.78
2023-04-16T02:31:48.858Z,1015.76
2023-04-16T02:32:48.150Z,1015.81
2023-04-16T02:33:48.120Z,1015.78
2023-04-16T02:34:48.080Z,1015.79
2023-04-16T02:35:48.761Z,1015.80
2023-04-16T02:36:48.745Z,1015.78
2023-04-16T02:37:49.051Z,1015.84
2023-04-16T02:38:48.078Z,1015.79
2023-04-16T02:39:48.725Z,1015.80
2023-04-16T02:40:48.707Z,1015.83
2023-04-16T02:41:48.678Z,1015.78
2023-04-16T02:42:48.002Z,1015.80
2023-04-16T02:43:48.960Z,1015.78
2023-04-16T02:44:47.991Z,1015.77
2023-04-16T02:45:48.680Z,1015.73
2023-04-16T02:46:48.628Z,1015.77
2023-04-16T02:47:48.011Z,1015.74
2023-04-16T02:48:48.624Z,1015.74
2023-04-16T02:49:48.619Z,1015.73
2023-04-16T02:50:48.844Z,1015.74
2023-04-16T02:51:48.871Z,1015.80
2023-04-16T02:52:48.621Z,1015.76
2023-04-16T02:53:48.571Z,1015.73
2023-04-16T02:54:47.869Z,1015.76
2023-04-16T02:55:47.870Z,1015.76
2023-04-16T02:56:47.885Z,1015.75
2023-04-16T02:57:48.536Z,1015.76
2023-04-16T02:58:47.835Z,1015.82
2023-04-16T02:59:48.775Z,1015.80
2023-04-16T03:00:47.818Z,1015.77
2023-04-16T03:01:48.022Z,1015.80
2023-04-16T03:02:48.991Z,1015.83
2023-04-16T03:03:48.498Z,1015.86
2023-04-16T03:04:48.745Z,1015.88
2023-04-16T03:05:48.446Z,1015.91
2023-04-16T03:06:48.433Z,1015.84
2023-04-16T03:07:47.764Z,1015.87
2023-04-16T03:08:48.413Z,1015.90
2023-04-16T03:09:47.723Z,1015.88
2023-04-16T03:10:47.718Z,1015.90
2023-04-16T03:11:47.701Z,1015.87
2023-04-16T03:12:48.353Z,1015.92
2023-04-16T03:13:48.363Z,1015.87
2023-04-16T03:14:47.686Z,1015.83
2023-04-16T03:15:47.715Z,1015.84
2023-04-16T03:16:48.330Z,1015.84
2023-04-16T03:17:48.322Z,1015.88
2023-04-16T03:18:48.305Z,1015.90
2023-04-16T03:19:47.635Z,1015.87
2023-04-16T03:20:48.282Z,1015.82
2023-04-16T03:21:48.531Z,1015.85
2023-04-16T03:22:48.267Z,1015.87
2023-04-16T03:23:48.254Z,1015.89
2023-04-16T03:24:47.580Z,1015.91
2023-04-16T03:25:48.244Z,1015.94
2023-04-16T03:26:48.190Z,1015.88
2023-04-16T03:27:47.553Z,1015.92
2023-04-16T03:28:48.935Z,1015.96
2023-04-16T03:29:48.197Z,1015.93
2023-04-16T03:30:47.537Z,1015.97
2023-04-16T03:31:47.512Z,1015.97
2023-04-16T03:32:48.183Z,1016.01
2023-04-16T03:33:48.152Z,1016.02
2023-04-16T03:34:48.140Z,1016.03
2023-04-16T03:35:48.142Z,1016.04
2023-04-16T03:36:47.450Z,1016.06
2023-04-16T03:37:48.109Z,1016.03
2023-04-16T03:38:48.093Z,1016.02
2023-04-16T03:39:48.081Z,1016.05
2023-04-16T03:40:48.076Z,1016.03
2023-04-16T03:41:48.042Z,1016.06
2023-04-16T03:42:47.377Z,1016.08
2023-04-16T03:43:48.050Z,1016.07
2023-04-16T03:44:48.031Z,1016.06
2023-04-16T03:45:48.023Z,1016.16
2023-04-16T03:46:48.053Z,1016.12
2023-04-16T03:47:47.402Z,1016.15
2023-04-16T03:48:47.310Z,1016.16
2023-04-16T03:49:47.978Z,1016.11
2023-04-16T03:50:48.015Z,1016.16
2023-04-16T03:51:47.940Z,1016.23
2023-04-16T03:52:47.945Z,1016.15
2023-04-16T03:53:47.274Z,1016.18
2023-04-16T03:54:47.925Z,1016.16
2023-04-16T03:55:47.229Z,1016.22
2023-04-16T03:56:47.226Z,1016.17
2023-04-16T03:57:47.892Z,1016.16
2023-04-16T03:58:47.877Z,1016.21
2023-04-16T03:59:47.870Z,1016.20
2023-04-16T04:00:47.858Z,1016.16
2023-04-16T04:01:47.915Z,1016.17
2023-04-16T04:02:47.972Z,1016.18
2023-04-16T04:03:48.047Z,1016.13
2023-04-16T04:04:47.253Z,1016.18
2023-04-16T04:05:47.157Z,1016.11
2023-04-16T04:06:47.777Z,1016.03
2023-04-16T04:07:47.784Z,1016.10
2023-04-16T04:08:47.789Z,1016.10
2023-04-16T04:09:47.768Z,1016.12
2023-04-16T04:10:47.085Z,1016.13
2023-04-16T04:11:47.078Z,1016.17
2023-04-16T04:12:47.739Z,1016.08
2023-04-16T04:13:47.036Z,1016.14
2023-04-16T04:14:47.705Z,1016.16
2023-04-16T04:15:47.040Z,1016.18
2023-04-16T04:16:47.762Z,1016.19
2023-04-16T04:17:47.696Z,1016.23
2023-04-16T04:18:46.995Z,1016.23
2023-04-16T04:20:00.299Z,1016.29
2023-04-16T04:20:47.971Z,1016.28
2023-04-16T04:21:46.960Z,1016.27
2023-04-16T04:22:46.943Z,1016.26
2023-04-16T04:23:46.927Z,1016.27
2023-04-16T04:24:47.604Z,1016.32
2023-04-16T04:25:46.978Z,1016.26
2023-04-16T04:26:47.563Z,1016.30
2023-04-16T04:27:46.893Z,1016.35
2023-04-16T04:28:46.884Z,1016.35
2023-04-16T04:29:47.554Z,1016.37
2023-04-16T04:30:47.554Z,1016.41
2023-04-16T04:31:47.596Z,1016.39
2023-04-16T04:32:47.555Z,1016.42
2023-04-16T04:33:47.508Z,1016.44
2023-04-16T04:34:46.815Z,1016.42
2023-04-16T04:35:47.486Z,1016.45
2023-04-16T04:36:46.845Z,1016.48
2023-04-16T04:37:47.464Z,1016.54
2023-04-16T04:38:47.458Z,1016.52
2023-04-16T04:39:46.761Z,1016.52
2023-04-16T04:40:46.755Z,1016.48
2023-04-16T04:41:47.419Z,1016.51
2023-04-16T04:42:46.716Z,1016.56
2023-04-16T04:43:47.411Z,1016.48
2023-04-16T04:44:46.753Z,1016.53
2023-04-16T04:45:46.733Z,1016.51
2023-04-16T04:46:46.693Z,1016.55
2023-04-16T04:47:47.387Z,1016.59
2023-04-16T04:48:46.670Z,1016.57
2023-04-16T04:49:46.652Z,1016.59
2023-04-16T04:50:46.654Z,1016.59
2023-04-16T04:51:46.648Z,1016.65
2023-04-16T04:52:46.616Z,1016.59
2023-04-16T04:53:47.291Z,1016.61
2023-04-16T04:54:47.287Z,1016.58
2023-04-16T04:55:49.293Z,1016.67
2023-04-16T04:56:48.238Z,1016.64
2023-04-16T04:57:46.591Z,1016.67
2023-04-16T04:58:46.571Z,1016.66
2023-04-16T04:59:47.221Z,1016.64
2023-04-16T05:00:47.226Z,1016.72
2023-04-16T05:01:46.516Z,1016.70
2023-04-16T05:02:47.352Z,1016.71
2023-04-16T05:03:46.584Z,1016.70
2023-04-16T05:04:46.574Z,1016.70
2023-04-16T05:05:47.160Z,1016.74
2023-04-16T05:06:46.488Z,1016.70
2023-04-16T05:07:47.139Z,1016.75
2023-04-16T05:08:47.130Z,1016.68
2023-04-16T05:09:47.117Z,1016.74
2023-04-16T05:10:47.113Z,1016.72
2023-04-16T05:11:47.075Z,1016.72
2023-04-16T05:12:48.227Z,1016.74
2023-04-16T05:13:47.093Z,1016.78
2023-04-16T05:14:46.383Z,1016.73
2023-04-16T05:15:47.066Z,1016.77
2023-04-16T05:16:47.058Z,1016.78
2023-04-16T05:17:46.436Z,1016.82
2023-04-16T05:18:47.021Z,1016.79
2023-04-16T05:19:46.324Z,1016.79
2023-04-16T05:20:46.338Z,1016.75
2023-04-16T05:21:46.305Z,1016.78
2023-04-16T05:22:46.278Z,1016.82
2023-04-16T05:23:46.295Z,1016.86
2023-04-16T05:24:46.275Z,1016.82
2023-04-16T05:25:46.261Z,1016.88
2023-04-16T05:26:46.270Z,1016.90
2023-04-16T05:27:46.927Z,1016.92
2023-04-16T05:28:46.248Z,1016.92
2023-04-16T05:29:46.227Z,1016.99
2023-04-16T05:30:46.242Z,1016.90
2023-04-16T05:31:46.877Z,1016.95
2023-04-16T05:32:46.909Z,1016.94
2023-04-16T05:33:46.869Z,1016.96
2023-04-16T05:34:46.168Z,1017.03
2023-04-16T05:35:46.824Z,1017.00
2023-04-16T05:36:46.141Z,1017.02
2023-04-16T05:37:46.160Z,1017.06
2023-04-16T05:38:46.806Z,1017.06
2023-04-16T05:39:46.797Z,1017.15
2023-04-16T05:40:46.787Z,1017.13
2023-04-16T05:41:46.758Z,1017.12
2023-04-16T05:42:46.797Z,1017.07
2023-04-16T05:43:46.753Z,1017.06
2023-04-16T05:44:46.057Z,1017.09
2023-04-16T05:45:46.783Z,1017.10
2023-04-16T05:46:46.720Z,1017.15
2023-04-16T05:47:46.769Z,1017.13
2023-04-16T05:48:46.705Z,1017.10
2023-04-16T05:49:45.998Z,1017.11
2023-04-16T05:50:46.683Z,1017.11
2023-04-16T05:51:47.012Z,1017.05
2023-04-16T05:52:46.658Z,1017.10
2023-04-16T05:53:46.655Z,1017.11
2023-04-16T05:54:46.648Z,1017.11
2023-04-16T05:55:45.954Z,1017.14
2023-04-16T05:56:46.616Z,1017.09
2023-04-16T05:57:46.611Z,1017.14
2023-04-16T05:58:46.599Z,1017.11
2023-04-16T05:59:45.902Z,1017.18
2023-04-16T06:00:45.897Z,1017.14
2023-04-16T06:01:45.897Z,1017.14
2023-04-16T06:02:46.775Z,1017.17
2023-04-16T06:03:45.938Z,1017.16
2023-04-16T06:04:47.780Z,1017.21
2023-04-16T06:05:46.599Z,1017.23
2023-04-16T06:06:45.834Z,1017.27
2023-04-16T06:07:46.496Z,1017.27
2023-04-16T06:08:45.810Z,1017.21
2023-04-16T06:09:46.474Z,1017.26
2023-04-16T06:10:46.466Z,1017.33
2023-04-16T06:11:45.778Z,1017.31
2023-04-16T06:12:46.450Z,1017.35
2023-04-16T06:13:45.765Z,1017.36
2023-04-16T06:14:45.749Z,1017.36
2023-04-16T06:15:46.426Z,1017.34
2023-04-16T06:16:46.387Z,1017.33
2023-04-16T06:17:46.435Z,1017.29
2023-04-16T06:18:45.689Z,1017.29
2023-04-16T06:19:46.374Z,1017.33
2023-04-16T06:20:46.357Z,1017.32
2023-04-16T06:21:45.692Z,1017.34
2023-04-16T06:22:46.346Z,1017.36
2023-04-16T06:23:46.326Z,1017.37
2023-04-16T06:24:46.317Z,1017.34
2023-04-16T06:25:46.566Z,1017.41
2023-04-16T06:26:46.583Z,1017.41
2023-04-16T06:27:46.557Z,1017.41
2023-04-16T06:28:46.267Z,1017.43
2023-04-16T06:29:46.269Z,1017.43
2023-04-16T06:30:46.516Z,1017.43
2023-04-16T06:31:46.249Z,1017.41
2023-04-16T06:32:46.285Z,1017.36
2023-04-16T06:33:45.544Z,1017.44
2023-04-16T06:34:46.209Z,1017.41
2023-04-16T06:35:46.195Z,1017.43
2023-04-16T06:36:46.171Z,1017.46
2023-04-16T06:37:45.480Z,1017.46
2023-04-16T06:38:46.162Z,1017.45
2023-04-16T06:39:45.471Z,1017.42
2023-04-16T06:40:46.137Z,1017.43
2023-04-16T06:41:45.485Z,1017.53
2023-04-16T06:42:46.404Z,1017.47
2023-04-16T06:43:45.427Z,1017.51
2023-04-16T06:44:46.097Z,1017.51
2023-04-16T06:45:46.390Z,1017.53
2023-04-16T06:46:46.154Z,1017.56
2023-04-16T06:47:46.126Z,1017.57
2023-04-16T06:48:45.380Z,1017.56
2023-04-16T06:49:46.047Z,1017.51
2023-04-16T06:50:46.304Z,1017.56
2023-04-16T06:51:46.278Z,1017.53
2023-04-16T06:52:46.288Z,1017.57
2023-04-16T06:53:45.997Z,1017.58
2023-04-16T06:54:46.253Z,1017.59
2023-04-16T06:55:46.244Z,1017.59
2023-04-16T06:56:46.241Z,1017.56
2023-04-16T06:57:46.224Z,1017.64
2023-04-16T06:58:45.951Z,1017.62
2023-04-16T06:59:45.936Z,1017.70
2023-04-16T07:00:45.970Z,1017.72
2023-04-16T07:01:45.931Z,1017.71
2023-04-16T07:02:46.031Z,1017.75
2023-04-16T07:03:45.429Z,1017.72
2023-04-16T07:04:45.208Z,1017.73
2023-04-16T07:05:45.857Z,1017.72
2023-04-16T07:06:45.843Z,1017.78
2023-04-16T07:07:45.900Z,1017.74
2023-04-16T07:08:45.160Z,1017.82
2023-04-16T07:09:45.150Z,1017.79
2023-04-16T07:10:45.160Z,1017.81
2023-04-16T07:11:45.146Z,1017.78
2023-04-16T07:12:45.793Z,1017.84
2023-04-16T07:13:45.122Z,1017.83
2023-04-16T07:14:45.083Z,1017.85
2023-04-16T07:15:45.085Z,1017.87
2023-04-16T07:16:45.801Z,1017.88
2023-04-16T07:17:45.118Z,1017.82
2023-04-16T07:18:45.740Z,1017.84
2023-04-16T07:19:45.722Z,1017.92
2023-04-16T07:20:45.708Z,1017.86
2023-04-16T07:21:45.681Z,1017.87
2023-04-16T07:22:45.693Z,1017.90
2023-04-16T07:23:45.675Z,1017.89
2023-04-16T07:24:45.668Z,1017.90
2023-04-16T07:25:46.048Z,1017.93
2023-04-16T07:26:45.637Z,1017.93
2023-04-16T07:27:44.966Z,1017.89
2023-04-16T07:28:45.627Z,1017.94
2023-04-16T07:29:45.614Z,1017.93
2023-04-16T07:30:45.902Z,1017.93
2023-04-16T07:31:45.609Z,1017.91
2023-04-16T07:32:44.962Z,1017.90
2023-04-16T07:33:44.910Z,1017.90
2023-04-16T07:34:45.625Z,1017.99
2023-04-16T07:35:45.898Z,1017.97
2023-04-16T07:36:45.830Z,1018.00
2023-04-16T07:37:48.914Z,1017.96
2023-04-16T07:38:45.519Z,1017.96
2023-04-16T07:39:44.833Z,1017.97
2023-04-16T07:40:44.866Z,1017.97
2023-04-16T07:41:45.493Z,1017.96
2023-04-16T07:42:45.477Z,1017.95
2023-04-16T07:43:45.466Z,1017.98
2023-04-16T07:44:45.455Z,1018.00
2023-04-16T07:45:44.818Z,1017.99
2023-04-16T07:46:47.364Z,1018.01
2023-04-16T07:47:45.473Z,1018.03
2023-04-16T07:48:45.418Z,1018.03
2023-04-16T07:49:45.410Z,1018.06
2023-04-16T07:50:44.737Z,1018.10
2023-04-16T07:51:45.386Z,1018.09
2023-04-16T07:52:45.590Z,1018.06
2023-04-16T07:53:45.357Z,1018.10
2023-04-16T07:54:45.354Z,1018.10
2023-04-16T07:55:45.323Z,1018.16
2023-04-16T07:56:44.643Z,1018.16
2023-04-16T07:57:45.317Z,1018.15
2023-04-16T07:58:44.640Z,1018.19
2023-04-16T07:59:45.281Z,1018.20
2023-04-16T08:00:44.605Z,1018.21
2023-04-16T08:01:45.279Z,1018.21
2023-04-16T08:02:44.933Z,1018.21
2023-04-16T08:03:45.412Z,1018.17
2023-04-16T08:04:45.460Z,1018.18
2023-04-16T08:05:45.236Z,1018.22
2023-04-16T08:06:45.222Z,1018.28
2023-04-16T08:07:45.215Z,1018.30
2023-04-16T08:08:44.537Z,1018.29
2023-04-16T08:09:44.525Z,1018.30
2023-04-16T08:10:45.213Z,1018.27
2023-04-16T08:11:45.172Z,1018.33
2023-04-16T08:12:44.520Z,1018.37
2023-04-16T08:13:44.459Z,1018.34
2023-04-16T08:14:44.475Z,1018.37
2023-04-16T08:15:45.148Z,1018.32
2023-04-16T08:16:45.245Z,1018.39
2023-04-16T08:17:45.137Z,1018.42
2023-04-16T08:18:44.415Z,1018.40
2023-04-16T08:19:45.131Z,1018.39
2023-04-16T08:20:44.398Z,1018.39
2023-04-16T08:21:45.067Z,1018.43
2023-04-16T08:22:44.476Z,1018.42
2023-04-16T08:23:44.358Z,1018.44
2023-04-16T08:24:45.016Z,1018.43
2023-04-16T08:25:44.340Z,1018.45
2023-04-16T08:26:45.015Z,1018.41
2023-04-16T08:27:45.001Z,1018.51
2023-04-16T08:28:44.306Z,1018.44
2023-04-16T08:29:44.973Z,1018.47
2023-04-16T08:30:44.980Z,1018.53
2023-04-16T08:31:45.004Z,1018.57
2023-04-16T08:32:44.368Z,1018.58
2023-04-16T08:33:44.954Z,1018.63
2023-04-16T08:34:44.914Z,1018.62
2023-04-16T08:35:44.919Z,1018.58
2023-04-16T08:36:44.900Z,1018.59
2023-04-16T08:37:44.226Z,1018.59
2023-04-16T08:38:44.218Z,1018.59
2023-04-16T08:39:44.205Z,1018.61
2023-04-16T08:40:44.858Z,1018.67
2023-04-16T08:41:44.865Z,1018.67
2023-04-16T08:42:44.152Z,1018.69
2023-04-16T08:43:44.830Z,1018.66
2023-04-16T08:44:44.791Z,1018.70
2023-04-16T08:45:44.799Z,1018.69
2023-04-16T08:46:44.879Z,1018.75
2023-04-16T08:47:44.145Z,1018.66
2023-04-16T08:48:44.768Z,1018.70
2023-04-16T08:49:44.115Z,1018.72
2023-04-16T08:50:44.749Z,1018.77
2023-04-16T08:51:45.012Z,1018.83
2023-04-16T08:52:44.044Z,1018.79
2023-04-16T08:53:44.047Z,1018.77
2023-04-16T08:54:44.041Z,1018.74
2023-04-16T08:55:44.017Z,1018.80
2023-04-16T08:56:44.681Z,1018.80
2023-04-16T08:57:45.425Z,1018.87
2023-04-16T08:58:44.665Z,1018.77
2023-04-16T08:59:43.994Z,1018.89
2023-04-16T09:00:44.641Z,1018.96
2023-04-16T09:01:44.657Z,1018.92
2023-04-16T09:02:44.904Z,1018.88
2023-04-16T09:03:44.810Z,1018.90
2023-04-16T09:04:45.019Z,1018.90
2023-04-16T09:05:43.906Z,1018.93
2023-04-16T09:06:43.898Z,1018.95
2023-04-16T09:07:44.562Z,1018.95
2023-04-16T09:08:44.558Z,1018.96
2023-04-16T09:09:44.522Z,1018.94
2023-04-16T09:10:44.531Z,1018.91
2023-04-16T09:11:43.837Z,1018.92
2023-04-16T09:12:43.839Z,1018.91
2023-04-16T09:13:44.502Z,1018.85
2023-04-16T09:14:44.469Z,1018.91
2023-04-16T09:15:44.472Z,1018.86
2023-04-16T09:16:44.533Z,1018.91
2023-04-16T09:17:43.811Z,1018.90
2023-04-16T09:18:43.775Z,1018.86
2023-04-16T09:19:44.417Z,1018.82
2023-04-16T09:20:43.773Z,1018.93
2023-04-16T09:21:43.738Z,1018.90
2023-04-16T09:22:44.396Z,1018.86
2023-04-16T09:23:44.389Z,1018.87
2023-04-16T09:24:44.364Z,1018.87
2023-04-16T09:25:44.382Z,1018.84
2023-04-16T09:26:44.365Z,1018.86
2023-04-16T09:27:44.352Z,1018.92
2023-04-16T09:28:44.350Z,1018.92
2023-04-16T09:29:44.330Z,1018.90
2023-04-16T09:30:43.656Z,1018.93
2023-04-16T09:31:43.665Z,1018.94
2023-04-16T09:32:44.313Z,1018.92
2023-04-16T09:33:43.611Z,1018.90
2023-04-16T09:34:44.256Z,1018.89
2023-04-16T09:35:43.611Z,1018.94
2023-04-16T09:36:44.253Z,1018.98
2023-04-16T09:37:44.238Z,1018.96
2023-04-16T09:38:44.235Z,1018.96
2023-04-16T09:39:44.207Z,1018.97
2023-04-16T09:40:44.207Z,1019.09
2023-04-16T09:41:43.511Z,1018.97
2023-04-16T09:42:44.188Z,1019.08
2023-04-16T09:43:44.178Z,1018.99
2023-04-16T09:44:44.151Z,1019.05
2023-04-16T09:45:44.198Z,1019.03
2023-04-16T09:46:43.472Z,1019.01
2023-04-16T09:47:43.536Z,1019.02
2023-04-16T09:48:43.448Z,1019.07
2023-04-16T09:49:44.104Z,1019.04
2023-04-16T09:50:43.421Z,1019.09
2023-04-16T09:51:43.425Z,1019.07
2023-04-16T09:52:43.414Z,1019.10
2023-04-16T09:53:43.383Z,1019.07
2023-04-16T09:54:43.397Z,1019.06
2023-04-16T09:55:45.901Z,1019.16
2023-04-16T09:56:43.350Z,1019.08
2023-04-16T09:57:44.029Z,1019.13
2023-04-16T09:58:43.332Z,1019.08
2023-04-16T09:59:43.333Z,1019.03
2023-04-16T10:00:44.009Z,1019.09
2023-04-16T10:01:44.045Z,1019.01
2023-04-16T10:02:43.369Z,1019.07
2023-04-16T10:03:44.091Z,1019.11
2023-04-16T10:04:43.306Z,1019.10
2023-04-16T10:05:43.258Z,1019.07
2023-04-16T10:06:43.239Z,1019.10
2023-04-16T10:07:43.919Z,1019.11
2023-04-16T10:08:43.246Z,1019.09
2023-04-16T10:09:43.873Z,1019.09
2023-04-16T10:10:43.884Z,1019.08
2023-04-16T10:11:43.191Z,1019.12
2023-04-16T10:12:43.861Z,1019.17
2023-04-16T10:13:45.101Z,1019.11
2023-04-16T10:14:43.175Z,1019.15
2023-04-16T10:15:43.157Z,1019.12
2023-04-16T10:16:43.852Z,1019.16
2023-04-16T10:17:43.851Z,1019.18
2023-04-16T10:18:43.816Z,1019.16
2023-04-16T10:19:43.116Z,1019.13
2023-04-16T10:20:43.092Z,1019.13
2023-04-16T10:21:43.086Z,1019.09
2023-04-16T10:22:43.760Z,1019.18
2023-04-16T10:23:43.774Z,1019.18
2023-04-16T10:24:43.068Z,1019.21
2023-04-16T10:25:43.764Z,1019.20
2023-04-16T10:26:43.719Z,1019.20
2023-04-16T10:27:43.012Z,1019.22
2023-04-16T10:28:43.744Z,1019.23
2023-04-16T10:29:43.970Z,1019.21
2023-04-16T10:30:43.700Z,1019.19
2023-04-16T10:31:43.652Z,1019.20
2023-04-16T10:32:43.025Z,1019.23
2023-04-16T10:33:43.657Z,1019.20
2023-04-16T10:34:42.976Z,1019.16
2023-04-16T10:35:43.611Z,1019.09
2023-04-16T10:36:43.602Z,1019.18
2023-04-16T10:37:43.587Z,1019.16
2023-04-16T10:38:42.895Z,1019.17
2023-04-16T10:39:42.913Z,1019.24
2023-04-16T10:40:42.874Z,1019.12
2023-04-16T10:41:42.873Z,1019.16
2023-04-16T10:42:43.536Z,1019.19
2023-04-16T10:43:43.576Z,1019.15
2023-04-16T10:44:45.509Z,1019.12
2023-04-16T10:45:44.762Z,1019.23
2023-04-16T10:46:42.876Z,1019.18
2023-04-16T10:47:43.582Z,1019.18
2023-04-16T10:48:49.858Z,1019.13
2023-04-16T10:49:45.248Z,1019.18
2023-04-16T10:50:43.447Z,1019.10
2023-04-16T10:51:42.754Z,1019.17
2023-04-16T10:52:43.433Z,1019.15
2023-04-16T10:53:43.417Z,1019.13
2023-04-16T10:54:44.681Z,1019.13
2023-04-16T10:55:42.704Z,1019.13
2023-04-16T10:56:43.405Z,1019.09
2023-04-16T10:57:43.388Z,1019.10
2023-04-16T10:58:43.363Z,1019.12
2023-04-16T10:59:42.692Z,1019.16
2023-04-16T11:00:42.649Z,1019.16
2023-04-16T11:01:42.782Z,1019.14
2023-04-16T11:02:42.856Z,1019.19
2023-04-16T11:03:43.467Z,1019.08
2023-04-16T11:04:42.786Z,1019.14
2023-04-16T11:05:44.554Z,1019.09
2023-04-16T11:06:42.584Z,1019.09
2023-04-16T11:07:42.570Z,1019.10
2023-04-16T11:08:54.125Z,1019.08
2023-04-16T11:09:45.023Z,1019.10
2023-04-16T11:10:43.237Z,1019.14
2023-04-16T11:11:43.978Z,1019.15
2023-04-16T11:12:43.211Z,1019.12
2023-04-16T11:13:43.598Z,1019.13
2023-04-16T11:14:42.525Z,1019.07
2023-04-16T11:15:43.190Z,1019.04
2023-04-16T11:16:43.177Z,1019.09
2023-04-16T11:17:43.204Z,1019.07
2023-04-16T11:18:48.795Z,1019.03
2023-04-16T11:19:44.891Z,1019.05
2023-04-16T11:20:43.139Z,1019.07
2023-04-16T11:21:43.111Z,1019.16
2023-04-16T11:22:42.416Z,1019.13
2023-04-16T11:23:43.129Z,1019.09
2023-04-16T11:24:43.062Z,1019.11
2023-04-16T11:25:42.381Z,1019.09
2023-04-16T11:26:43.060Z,1019.10
2023-04-16T11:27:43.043Z,1019.03
2023-04-16T11:28:43.033Z,1019.06
2023-04-16T11:29:44.561Z,1019.01
2023-04-16T11:30:42.330Z,1019.03
2023-04-16T11:31:43.029Z,1019.04
2023-04-16T11:32:43.326Z,1019.05
2023-04-16T11:33:42.984Z,1019.06
2023-04-16T11:34:42.950Z,1019.05
2023-04-16T11:35:42.965Z,1019.02
2023-04-16T11:36:42.264Z,1019.01
2023-04-16T11:37:42.935Z,1019.04
2023-04-16T11:38:42.240Z,1019.04
2023-04-16T11:39:42.896Z,1018.99
2023-04-16T11:40:42.246Z,1019.04
2023-04-16T11:41:42.214Z,1019.05
2023-04-16T11:42:42.256Z,1019.00
2023-04-16T11:43:43.141Z,1019.09
2023-04-16T11:44:42.844Z,1019.07
2023-04-16T11:45:42.174Z,1019.09
2023-04-16T11:46:42.871Z,1019.17
2023-04-16T11:47:43.138Z,1019.13
2023-04-16T11:48:42.813Z,1019.09
2023-04-16T11:49:42.790Z,1019.12
2023-04-16T11:50:42.793Z,1019.15
2023-04-16T11:51:42.787Z,1019.13
2023-04-16T11:52:42.094Z,1019.17
2023-04-16T11:53:42.078Z,1019.17
2023-04-16T11:54:42.730Z,1019.19
2023-04-16T11:55:42.054Z,1019.18
2023-04-16T11:56:42.736Z,1019.20
2023-04-16T11:57:42.721Z,1019.16
2023-04-16T11:58:42.528Z,1019.19
2023-04-16T12:00:01.935Z,1019.19
2023-04-16T12:00:43.680Z,1019.16
2023-04-16T12:01:42.721Z,1019.18
2023-04-16T12:02:42.799Z,1019.23
2023-04-16T12:03:42.986Z,1019.22
2023-04-16T12:04:42.010Z,1019.21
2023-04-16T12:05:41.961Z,1019.28